createdAt,value
2016-12-01T21:05:07.741Z,47.63
2016-12-01T21:05:30.525Z,46.4
2016-12-01T21:06:41.262Z,46.97
2016-12-01T21:07:51.023Z,48.4
2016-12-01T21:09:01.045Z,49.53
2016-12-01T21:10:11.097Z,50.09
2016-12-01T21:11:20.502Z,50.09
2016-12-01T21:12:30.870Z,50.57
2016-12-01T21:13:40.683Z,50.18
2016-12-01T21:14:50.703Z,50.45
2016-12-01T21:16:00.494Z,50.45
2016-12-01T21:17:10.632Z,51.05
2016-12-01T21:18:21.026Z,50.54
2016-12-01T21:19:31.074Z,50.45
2016-12-01T21:20:41.571Z,50.35
2016-12-01T21:21:51.901Z,50.27
2016-12-01T21:23:01.918Z,50.73
2016-12-01T21:24:11.934Z,50.37
2016-12-01T21:25:21.323Z,50.66
2016-12-01T21:26:30.732Z,50.76
2016-12-01T21:27:40.894Z,50.45
2016-12-01T21:28:50.613Z,50.76
2016-12-01T21:30:00.388Z,50.76
2016-12-01T21:31:10.974Z,50.47
2016-12-01T21:32:21.733Z,49.89
2016-12-01T21:33:31.759Z,50.09
2016-12-01T21:34:42.110Z,49.99
2016-12-01T21:35:51.545Z,49.89
2016-12-01T21:37:01.876Z,49.99
2016-12-01T21:38:11.061Z,50.09
2016-12-01T21:39:21.373Z,49.32
2016-12-01T21:40:31.535Z,49.7
2016-12-01T21:41:41.532Z,49.79
2016-12-01T21:42:51.540Z,49.73
2016-12-01T21:44:01.572Z,49.82
2016-12-01T21:45:11.277Z,49.41
2016-12-01T21:46:20.995Z,49.79
2016-12-01T21:47:31.060Z,49.63
2016-12-01T21:48:41.152Z,49.63
2016-12-01T21:49:51.471Z,49.63
2016-12-01T21:51:01.921Z,49.53
2016-12-01T21:52:11.329Z,49.73
2016-12-01T21:53:21.050Z,49.79
2016-12-01T21:54:30.799Z,49.73
2016-12-01T21:55:40.848Z,49.89
2016-12-01T21:56:50.547Z,50.11
2016-12-01T21:58:00.870Z,50.09
2016-12-01T21:59:10.895Z,49.79
2016-12-01T22:00:20.673Z,49.79
2016-12-01T22:01:30.853Z,49.79
2016-12-01T22:02:39.915Z,49.99
2016-12-01T22:03:49.662Z,50.27
2016-12-01T22:04:59.413Z,50.27
2016-12-01T22:06:09.533Z,50.37
2016-12-01T22:07:19.880Z,50.37
2016-12-01T22:08:29.903Z,50.57
2016-12-01T22:09:39.904Z,50.76
2016-12-01T22:10:49.681Z,50.66
2016-12-01T22:11:59.702Z,50.47
2016-12-01T22:13:09.712Z,50.37
2016-12-01T22:14:19.401Z,50.95
2016-12-01T22:15:29.162Z,51.05
2016-12-01T22:16:38.959Z,51.05
2016-12-01T22:17:49.311Z,50.83
2016-12-01T22:18:59.304Z,50.73
2016-12-01T22:20:09.640Z,51.12
2016-12-01T22:21:19.688Z,51.12
2016-12-01T22:22:29.710Z,51.02
2016-12-01T22:23:39.735Z,51.12
2016-12-01T22:24:49.607Z,51.02
2016-12-01T22:25:59.617Z,51.02
2016-12-01T22:27:09.938Z,51.12
2016-12-01T22:28:19.648Z,51.31
2016-12-01T22:29:29.358Z,51.5
2016-12-01T22:30:39.219Z,51.5
2016-12-01T22:31:49.377Z,51.41
2016-12-01T22:32:58.798Z,51.31
2016-12-01T22:34:08.612Z,51.31
2016-12-01T22:35:18.038Z,51.41
2016-12-01T22:36:28.508Z,51.89
2016-12-01T22:37:38.898Z,51.7
2016-12-01T22:38:49.289Z,51.5
2016-12-01T22:39:59.368Z,51.5
2016-12-01T22:41:09.115Z,51.5
2016-12-01T22:42:18.806Z,51.41
2016-12-01T22:43:28.884Z,51.67
2016-12-01T22:44:38.619Z,51.89
2016-12-01T22:45:48.637Z,51.5
2016-12-01T22:46:58.686Z,51.76
2016-12-01T22:48:07.773Z,51.86
2016-12-01T22:49:18.087Z,51.86
2016-12-01T22:50:27.503Z,52.15
2016-12-01T22:51:37.319Z,52.25
2016-12-01T22:52:47.337Z,52.06
2016-12-01T22:53:57.366Z,52.06
2016-12-01T22:55:07.077Z,52.25
2016-12-01T22:56:17.221Z,52.44
2016-12-01T22:57:27.237Z,52.54
2016-12-01T22:58:36.934Z,52.54
2016-12-01T22:59:46.959Z,52.44
2016-12-01T23:00:56.997Z,52.44
2016-12-01T23:02:06.375Z,52.34
2016-12-01T23:03:16.368Z,52.34
2016-12-01T23:04:26.585Z,52.44
2016-12-01T23:05:36.299Z,52.25
2016-12-01T23:06:46.310Z,52.25
2016-12-01T23:07:56.639Z,52.63
2016-12-01T23:09:06.329Z,52.54
2016-12-01T23:10:16.320Z,52.44
2016-12-01T23:11:26.048Z,52.63
2016-12-01T23:12:35.794Z,52.54
2016-12-01T23:13:46.160Z,52.83
2016-12-01T23:14:56.272Z,52.54
2016-12-01T23:16:06.291Z,52.92
2016-12-01T23:17:16.349Z,52.83
2016-12-01T23:18:26.192Z,53.31
2016-12-01T23:19:36.182Z,53.4
2016-12-01T23:20:46.352Z,53.31
2016-12-01T23:21:56.381Z,53.31
2016-12-01T23:23:06.172Z,53.28
2016-12-01T23:24:16.372Z,52.89
2016-12-01T23:25:26.382Z,52.99
2016-12-01T23:26:36.170Z,53.28
2016-12-01T23:27:45.594Z,53.66
2016-12-01T23:28:55.712Z,52.99
2016-12-01T23:30:05.733Z,53.66
2016-12-01T23:31:15.121Z,53.66
2016-12-01T23:32:25.169Z,53.19
2016-12-01T23:33:34.865Z,53.28
2016-12-01T23:34:44.584Z,53.76
2016-12-01T23:35:54.285Z,53.57
2016-12-01T23:37:03.997Z,53.76
2016-12-01T23:38:14.002Z,53.86
2016-12-01T23:39:24.134Z,54.14
2016-12-01T23:40:34.163Z,53.47
2016-12-01T23:41:43.563Z,53.86
2016-12-01T23:42:53.895Z,53.86
2016-12-01T23:44:03.887Z,53.96
2016-12-01T23:45:13.994Z,53.86
2016-12-01T23:46:23.678Z,53.66
2016-12-01T23:47:33.408Z,53.96
2016-12-01T23:48:43.217Z,54.05
2016-12-01T23:49:52.629Z,53.96
2016-12-01T23:51:02.670Z,54.05
2016-12-01T23:52:12.055Z,53.96
2016-12-01T23:53:22.082Z,54.05
2016-12-01T23:54:32.085Z,53.96
2016-12-01T23:55:42.399Z,54.14
2016-12-01T23:56:51.886Z,54.22
2016-12-01T23:58:01.588Z,54.14
2016-12-01T23:59:11.027Z,54.24
